createdAt,value
2019-01-13T00:02:32.781Z,99410.62
2019-01-13T00:05:08.560Z,99408.83
2019-01-13T00:07:38.903Z,99409.41
2019-01-13T00:10:09.400Z,99400.47
2019-01-13T00:12:43.468Z,99403.09
2019-01-13T00:15:14.100Z,99405.66
2019-01-13T00:17:44.431Z,99406.53
2019-01-13T00:20:49.588Z,99401.52
2019-01-13T00:23:19.892Z,99396.39
2019-01-13T00:25:50.778Z,99401.45
2019-01-13T00:28:24.664Z,99397.84
2019-01-13T00:30:56.614Z,99395.37
2019-01-13T00:33:27.105Z,99391.11
2019-01-13T00:36:01.574Z,99392.36
2019-01-13T00:38:32.033Z,99382.78
2019-01-13T00:41:02.549Z,99390.47
2019-01-13T00:43:34.045Z,99388.43
2019-01-13T00:46:06.556Z,99392.30
2019-01-13T00:48:36.914Z,99384.56
2019-01-13T00:51:09.994Z,99391.63
2019-01-13T00:53:40.896Z,99395.73
2019-01-13T00:56:11.392Z,99399.66
2019-01-13T00:58:45.377Z,99396.78
2019-01-13T01:01:17.370Z,99389.78
2019-01-13T01:03:48.200Z,99393.81
2019-01-13T01:06:20.072Z,99393.20
2019-01-13T01:08:51.041Z,99401.06
2019-01-13T01:11:23.865Z,99391.79
2019-01-13T01:13:54.536Z,99390.48
2019-01-13T01:16:27.107Z,99386.43
2019-01-13T01:18:58.669Z,99393.59
2019-01-13T01:21:31.229Z,99397.41
2019-01-13T01:24:03.813Z,99396.21
2019-01-13T01:26:35.719Z,99399.09
2019-01-13T01:29:08.098Z,99399.94
2019-01-13T01:31:38.847Z,99391.93
2019-01-13T01:34:09.315Z,99392.17
2019-01-13T01:36:39.757Z,99404.73
2019-01-13T01:39:10.944Z,99398.31
2019-01-13T01:41:41.367Z,99393.87
2019-01-13T01:44:32.411Z,99395.78
2019-01-13T01:47:02.845Z,99401.05
2019-01-13T01:49:33.211Z,99397.06
2019-01-13T01:52:05.756Z,99399.56
2019-01-13T01:54:37.376Z,99400.39
2019-01-13T01:57:10.870Z,99396.23
2019-01-13T01:59:41.233Z,99400.41
2019-01-13T02:02:11.589Z,99399.11
2019-01-13T02:04:42.045Z,99399.84
2019-01-13T02:07:12.338Z,99399.46
2019-01-13T02:09:42.739Z,99404.25
2019-01-13T02:12:13.644Z,99393.14
2019-01-13T02:14:44.473Z,99397.42
2019-01-13T02:17:15.162Z,99390.64
2019-01-13T02:19:45.920Z,99384.64
2019-01-13T02:22:16.391Z,99392.66
2019-01-13T02:24:46.770Z,99383.81
2019-01-13T02:27:17.071Z,99390.76
2019-01-13T02:29:47.915Z,99390.40
2019-01-13T02:32:18.794Z,99390.55
2019-01-13T02:34:49.153Z,99380.04
2019-01-13T02:37:19.422Z,99391.11
2019-01-13T02:39:49.808Z,99380.98
2019-01-13T02:42:20.507Z,99389.11
2019-01-13T02:44:50.880Z,99386.83
2019-01-13T02:47:21.232Z,99379.88
2019-01-13T02:49:51.598Z,99384.09
2019-01-13T02:52:22.078Z,99368.94
2019-01-13T02:54:52.604Z,99380.75
2019-01-13T02:57:22.893Z,99380.64
2019-01-13T02:59:53.218Z,99373.45
2019-01-13T03:02:23.598Z,99372.39
2019-01-13T03:04:54.221Z,99370.39
2019-01-13T03:07:24.585Z,99381.80
2019-01-13T03:09:54.941Z,99372.65
2019-01-13T03:12:25.896Z,99384.44
2019-01-13T03:14:56.350Z,99371.30
2019-01-13T03:17:26.682Z,99383.72
2019-01-13T03:19:57.248Z,99382.41
2019-01-13T03:22:28.394Z,99387.89
2019-01-13T03:24:59.865Z,99378.36
2019-01-13T03:27:30.215Z,99378.26
2019-01-13T03:30:00.793Z,99363.45
2019-01-13T03:32:31.252Z,99374.80
2019-01-13T03:35:01.599Z,99368.59
2019-01-13T03:37:32.035Z,99366.31
2019-01-13T03:40:02.492Z,99371.91
2019-01-13T03:42:32.886Z,99370.87
2019-01-13T03:45:03.300Z,99359.53
2019-01-13T03:47:33.598Z,99355.81
2019-01-13T03:50:04.026Z,99367.38
2019-01-13T03:52:34.463Z,99367.97
2019-01-13T03:55:04.968Z,99362.22
2019-01-13T03:57:35.341Z,99370.11
2019-01-13T04:00:07.577Z,99365.45
2019-01-13T04:02:37.983Z,99360.35
2019-01-13T04:05:08.631Z,99354.84
2019-01-13T04:07:38.997Z,99361.27
2019-01-13T04:10:10.617Z,99353.30
2019-01-13T04:12:40.966Z,99337.43
2019-01-13T04:15:49.290Z,99340.41
2019-01-13T04:18:20.456Z,99341.33
2019-01-13T04:20:51.091Z,99338.72
2019-01-13T04:23:21.357Z,99332.64
2019-01-13T04:25:51.745Z,99335.38
2019-01-13T04:28:22.023Z,99339.20
2019-01-13T04:30:52.416Z,99341.33
2019-01-13T04:33:22.940Z,99340.88
2019-01-13T04:35:53.611Z,99339.79
2019-01-13T04:38:23.910Z,99339.20
2019-01-13T04:40:54.760Z,99336.09
2019-01-13T04:43:25.052Z,99335.86
2019-01-13T04:45:55.408Z,99333.47
2019-01-13T04:48:26.224Z,99318.56
2019-01-13T04:50:56.841Z,99315.32
2019-01-13T04:53:27.896Z,99308.31
2019-01-13T04:55:58.386Z,99299.71
2019-01-13T04:58:29.236Z,99309.36
2019-01-13T05:00:59.767Z,99310.67
2019-01-13T05:03:30.181Z,99301.75
2019-01-13T05:06:02.482Z,99314.40
2019-01-13T05:08:33.890Z,99316.55
2019-01-13T05:11:05.163Z,99311.66
2019-01-13T05:13:35.517Z,99306.77
2019-01-13T05:16:06.805Z,99304.16
2019-01-13T05:18:37.222Z,99300.33
2019-01-13T05:21:07.526Z,99302.48
2019-01-13T05:23:38.684Z,99292.11
2019-01-13T05:26:09.035Z,99295.20
2019-01-13T05:28:50.625Z,99288.76
2019-01-13T05:31:20.995Z,99295.45
2019-01-13T05:33:51.271Z,99299.02
2019-01-13T05:36:22.201Z,99289.48
2019-01-13T05:38:52.983Z,99283.50
2019-01-13T05:41:23.322Z,99290.91
2019-01-13T05:43:53.715Z,99284.22
2019-01-13T05:46:24.087Z,99289.00
2019-01-13T05:48:54.403Z,99287.21
2019-01-13T05:51:24.817Z,99288.75
2019-01-13T05:53:55.476Z,99282.06
2019-01-13T05:56:25.846Z,99291.87
2019-01-13T05:58:56.215Z,99280.05
2019-01-13T06:01:26.575Z,99282.66
2019-01-13T06:03:56.949Z,99282.92
2019-01-13T06:06:27.803Z,99273.14
2019-01-13T06:08:58.085Z,99275.18
2019-01-13T06:11:28.474Z,99280.53
2019-01-13T06:13:59.123Z,99262.16
2019-01-13T06:16:29.569Z,99272.31
2019-01-13T06:18:59.841Z,99272.56
2019-01-13T06:21:30.202Z,99268.72
2019-01-13T06:24:01.021Z,99272.55
2019-01-13T06:26:31.894Z,99265.02
2019-01-13T06:29:02.221Z,99262.52
2019-01-13T06:31:33.071Z,99258.71
2019-01-13T06:34:03.991Z,99265.16
2019-01-13T06:36:34.412Z,99259.78
2019-01-13T06:39:08.788Z,99257.86
2019-01-13T06:41:39.166Z,99260.02
2019-01-13T06:44:09.555Z,99261.80
2019-01-13T06:46:39.841Z,99264.80
2019-01-13T06:49:10.196Z,99260.73
2019-01-13T06:51:40.912Z,99259.17
2019-01-13T06:54:11.299Z,99251.17
2019-01-13T06:56:41.657Z,99257.38
2019-01-13T06:59:11.968Z,99256.92
2019-01-13T07:01:42.408Z,99244.14
2019-01-13T07:04:12.750Z,99246.89
2019-01-13T07:06:43.113Z,99241.52
2019-01-13T07:09:13.576Z,99248.09
2019-01-13T07:11:43.937Z,99257.52
2019-01-13T07:14:14.390Z,99242.47
2019-01-13T07:16:44.774Z,99252.63
2019-01-13T07:19:15.069Z,99250.84
2019-01-13T07:21:45.942Z,99265.38
2019-01-13T07:24:16.391Z,99260.50
2019-01-13T07:26:47.223Z,99252.97
2019-01-13T07:29:17.580Z,99254.77
2019-01-13T07:31:47.988Z,99245.00
2019-01-13T07:34:18.248Z,99245.22
2019-01-13T07:36:48.610Z,99233.19
2019-01-13T07:39:19.393Z,99240.34
2019-01-13T07:41:49.844Z,99231.97
2019-01-13T07:44:20.151Z,99242.72
2019-01-13T07:46:50.548Z,99237.59
2019-01-13T07:49:21.134Z,99234.59
2019-01-13T07:51:51.573Z,99214.57
2019-01-13T07:54:22.427Z,99207.29
2019-01-13T07:56:52.781Z,99200.13
2019-01-13T07:59:23.166Z,99209.31
2019-01-13T08:01:54.657Z,99202.38
2019-01-13T08:04:25.007Z,99210.38
2019-01-13T08:06:55.343Z,99195.56
2019-01-13T08:09:26.278Z,99188.78
2019-01-13T08:11:56.600Z,99190.57
2019-01-13T08:14:27.052Z,99187.95
2019-01-13T08:16:57.444Z,99187.22
2019-01-13T08:19:27.824Z,99186.88
2019-01-13T08:21:58.259Z,99167.19
2019-01-13T08:24:29.168Z,99165.48
2019-01-13T08:26:59.722Z,99155.97
2019-01-13T08:29:30.037Z,99155.71
2019-01-13T08:32:00.452Z,99145.81
2019-01-13T08:34:30.737Z,99153.30
2019-01-13T08:37:01.104Z,99149.73
2019-01-13T08:39:31.472Z,99143.77
2019-01-13T08:42:02.382Z,99126.33
2019-01-13T08:44:33.654Z,99143.25
2019-01-13T08:47:04.043Z,99119.55
2019-01-13T08:49:34.850Z,99136.14
2019-01-13T08:52:05.211Z,99129.12
2019-01-13T08:54:36.148Z,99126.00
2019-01-13T08:57:06.556Z,99119.81
2019-01-13T08:59:37.034Z,99121.27
2019-01-13T09:02:07.469Z,99105.05
2019-01-13T09:04:37.874Z,99110.44
2019-01-13T09:07:08.351Z,99115.55
2019-01-13T09:09:39.239Z,99110.44
2019-01-13T09:12:09.880Z,99095.16
2019-01-13T09:14:41.037Z,99089.20
2019-01-13T09:17:11.453Z,99088.02
2019-01-13T09:19:43.093Z,99077.38
2019-01-13T09:22:15.692Z,99064.91
2019-01-13T09:24:46.054Z,99064.39
2019-01-13T09:27:16.392Z,99068.19
2019-01-13T09:29:46.762Z,99063.07
2019-01-13T09:32:17.074Z,99049.83
2019-01-13T09:34:49.937Z,99050.53
2019-01-13T09:37:20.300Z,99051.84
2019-01-13T09:39:51.248Z,99048.11
2019-01-13T09:42:21.562Z,99036.60
2019-01-13T09:44:51.939Z,99036.45
2019-01-13T09:47:22.649Z,99024.13
2019-01-13T09:49:53.006Z,99020.83
2019-01-13T09:52:23.595Z,99010.48
2019-01-13T09:54:53.961Z,99001.80
2019-01-13T09:57:24.225Z,98985.25
2019-01-13T09:59:54.615Z,98978.69
2019-01-13T10:02:24.978Z,98983.34
2019-01-13T10:04:56.309Z,98966.41
2019-01-13T10:07:26.675Z,98959.44
2019-01-13T10:09:57.377Z,98959.70
2019-01-13T10:12:27.759Z,98945.38
2019-01-13T10:14:58.176Z,98933.11
2019-01-13T10:17:28.570Z,98925.81
2019-01-13T10:19:58.920Z,98918.78
2019-01-13T10:22:29.987Z,98909.22
2019-01-13T10:25:00.421Z,98908.27
2019-01-13T10:27:30.775Z,98900.56
2019-01-13T10:30:01.118Z,98895.65
2019-01-13T10:32:32.143Z,98879.63
2019-01-13T10:35:43.345Z,98881.24
2019-01-13T10:38:13.758Z,98867.03
2019-01-13T10:40:44.530Z,98857.84
2019-01-13T10:43:15.038Z,98844.81
2019-01-13T10:45:45.426Z,98842.11
2019-01-13T10:48:15.803Z,98827.56
2019-01-13T10:50:46.658Z,98822.73
2019-01-13T10:53:16.950Z,98823.48
2019-01-13T10:55:47.744Z,98816.73
2019-01-13T10:58:18.525Z,98814.77
2019-01-13T11:00:49.375Z,98804.72
2019-01-13T11:03:19.802Z,98798.91
2019-01-13T11:05:50.816Z,98789.91
2019-01-13T11:08:21.263Z,98782.59
2019-01-13T11:10:51.695Z,98765.38
2019-01-13T11:13:22.018Z,98754.20
2019-01-13T11:15:53.008Z,98757.26
2019-01-13T11:18:23.327Z,98750.04
2019-01-13T11:20:53.665Z,98732.08
2019-01-13T11:23:24.025Z,98735.17
2019-01-13T11:25:54.336Z,98729.70
2019-01-13T11:28:24.771Z,98708.36
2019-01-13T11:30:55.194Z,98708.86
2019-01-13T11:33:25.610Z,98705.54
2019-01-13T11:35:55.982Z,98687.94
2019-01-13T11:38:28.246Z,98680.31
2019-01-13T11:40:58.605Z,98663.41
2019-01-13T11:43:29.083Z,98653.02
2019-01-13T11:45:59.382Z,98650.73
2019-01-13T11:48:31.331Z,98643.27
2019-01-13T11:51:03.856Z,98628.49
2019-01-13T11:53:35.080Z,98630.50
2019-01-13T11:56:05.828Z,98633.33
2019-01-13T11:58:38.227Z,98623.11
2019-01-13T12:01:09.707Z,98621.86
2019-01-13T12:03:39.991Z,98604.61
2019-01-13T12:06:10.332Z,98604.55
2019-01-13T12:08:40.707Z,98595.27
2019-01-13T12:11:11.060Z,98576.51
2019-01-13T12:13:41.760Z,98573.81
2019-01-13T12:16:12.286Z,98573.98
2019-01-13T12:18:42.680Z,98550.62
2019-01-13T12:21:13.071Z,98551.39
2019-01-13T12:23:43.519Z,98542.02
2019-01-13T12:26:13.924Z,98535.08
2019-01-13T12:28:44.284Z,98541.64
2019-01-13T12:31:14.758Z,98527.55
2019-01-13T12:33:45.157Z,98512.50
2019-01-13T12:36:15.537Z,98515.67
2019-01-13T12:38:45.849Z,98509.11
2019-01-13T12:41:16.338Z,98493.48
2019-01-13T12:43:47.080Z,98487.53
2019-01-13T12:46:17.363Z,98474.69
2019-01-13T12:48:47.777Z,98482.28
2019-01-13T12:51:18.525Z,98470.69
2019-01-13T12:53:48.939Z,98461.22
2019-01-13T12:56:19.331Z,98457.06
2019-01-13T12:58:50.011Z,98458.23
2019-01-13T13:01:20.387Z,98451.51
2019-01-13T13:03:50.793Z,98434.72
2019-01-13T13:06:21.662Z,98433.70
2019-01-13T13:09:15.618Z,98428.77
2019-01-13T13:11:46.313Z,98420.78
2019-01-13T13:14:16.623Z,98409.33
2019-01-13T13:16:47.148Z,98403.44
2019-01-13T13:19:18.917Z,98404.11
2019-01-13T13:21:49.257Z,98385.02
2019-01-13T13:24:19.651Z,98377.75
2019-01-13T13:26:49.929Z,98374.20
2019-01-13T13:29:20.252Z,98385.77
2019-01-13T13:31:50.650Z,98368.94
2019-01-13T13:34:21.491Z,98360.52
2019-01-13T13:36:52.484Z,98365.14
2019-01-13T13:39:22.760Z,98343.84
2019-01-13T13:41:53.194Z,98341.27
2019-01-13T13:44:23.622Z,98320.52
2019-01-13T13:46:54.150Z,98340.53
2019-01-13T13:49:24.600Z,98333.94
2019-01-13T13:51:55.500Z,98340.94
2019-01-13T13:54:25.890Z,98338.48
2019-01-13T13:56:56.408Z,98325.75
2019-01-13T13:59:26.749Z,98309.75
2019-01-13T14:01:57.087Z,98327.27
2019-01-13T14:04:28.443Z,98321.69
2019-01-13T14:06:58.732Z,98307.28
2019-01-13T14:09:29.220Z,98306.33
2019-01-13T14:11:59.686Z,98306.00
2019-01-13T14:14:30.172Z,98295.05
2019-01-13T14:17:00.492Z,98292.18
2019-01-13T14:19:31.420Z,98287.76
2019-01-13T14:22:01.970Z,98292.22
2019-01-13T14:24:32.303Z,98288.44
2019-01-13T14:27:02.717Z,98280.70
2019-01-13T14:29:33.478Z,98294.14
2019-01-13T14:32:03.899Z,98268.69
2019-01-13T14:34:34.398Z,98274.99
2019-01-13T14:37:04.776Z,98266.06
2019-01-13T14:39:35.200Z,98270.33
2019-01-13T14:42:06.140Z,98268.69
2019-01-13T14:44:36.545Z,98266.77
2019-01-13T14:47:07.265Z,98269.12
2019-01-13T14:49:37.701Z,98269.47
2019-01-13T14:52:08.101Z,98267.00
2019-01-13T14:54:38.475Z,98273.67
2019-01-13T14:57:12.005Z,98274.58
2019-01-13T14:59:42.424Z,98268.73
2019-01-13T15:02:13.036Z,98253.26
2019-01-13T15:04:43.428Z,98264.39
2019-01-13T15:07:14.099Z,98262.05
2019-01-13T15:09:44.531Z,98271.17
2019-01-13T15:12:15.057Z,98266.38
2019-01-13T15:14:45.637Z,98255.57
2019-01-13T15:17:16.423Z,98233.13
2019-01-13T15:19:46.996Z,98240.70
2019-01-13T15:22:17.515Z,98240.06
2019-01-13T15:24:48.133Z,98234.13
2019-01-13T15:27:18.625Z,98237.08
2019-01-13T15:29:48.942Z,98226.52
2019-01-13T15:32:19.886Z,98224.91
2019-01-13T15:34:50.932Z,98201.75
2019-01-13T15:37:21.399Z,98214.45
2019-01-13T15:39:52.623Z,98214.91
2019-01-13T15:42:55.992Z,98211.79
2019-01-13T15:45:27.527Z,98210.31
2019-01-13T15:47:58.278Z,98189.13
2019-01-13T15:50:30.461Z,98188.42
2019-01-13T15:53:01.097Z,98182.55
2019-01-13T15:55:31.612Z,98177.89
2019-01-13T15:58:02.107Z,98165.09
2019-01-13T16:00:37.347Z,98165.81
2019-01-13T16:03:10.182Z,98169.78
2019-01-13T16:05:41.204Z,98173.41
2019-01-13T16:08:12.034Z,98178.67
2019-01-13T16:10:42.663Z,98165.86
2019-01-13T16:13:13.302Z,98178.39
2019-01-13T16:15:43.804Z,98172.97
2019-01-13T16:18:14.072Z,98160.94
2019-01-13T16:20:44.999Z,98152.27
2019-01-13T16:23:15.441Z,98140.55
2019-01-13T16:25:45.794Z,98135.27
2019-01-13T16:28:16.168Z,98136.95
2019-01-13T16:30:46.579Z,98126.05
2019-01-13T16:33:17.802Z,98114.70
2019-01-13T16:35:48.117Z,98107.27
2019-01-13T16:38:18.544Z,98102.99
2019-01-13T16:40:48.936Z,98094.28
2019-01-13T16:43:19.710Z,98090.78
2019-01-13T16:45:51.867Z,98088.48
2019-01-13T16:48:22.248Z,98069.67
2019-01-13T16:51:08.511Z,98076.42
2019-01-13T16:53:40.865Z,98072.32
2019-01-13T16:56:11.473Z,98068.08
2019-01-13T16:58:41.885Z,98057.83
2019-01-13T17:01:13.344Z,98055.61
2019-01-13T17:03:44.087Z,98035.20
2019-01-13T17:06:14.713Z,98039.80
2019-01-13T17:08:45.135Z,98032.91
2019-01-13T17:11:15.559Z,98033.73
2019-01-13T17:13:45.973Z,98027.30
2019-01-13T17:16:16.379Z,98024.84
2019-01-13T17:18:47.158Z,98016.29
2019-01-13T17:21:17.545Z,98009.19
2019-01-13T17:23:47.879Z,98012.51
2019-01-13T17:26:18.204Z,98006.08
2019-01-13T17:28:50.490Z,98011.36
2019-01-13T17:31:21.407Z,97992.25
2019-01-13T17:33:51.916Z,97984.36
2019-01-13T17:36:22.389Z,97998.34
2019-01-13T17:38:52.884Z,97981.05
2019-01-13T17:41:23.269Z,97975.63
2019-01-13T17:43:53.771Z,97957.52
2019-01-13T17:46:24.158Z,97969.70
2019-01-13T17:48:54.552Z,97964.77
2019-01-13T17:51:24.890Z,97969.86
2019-01-13T17:53:56.275Z,97966.42
2019-01-13T17:56:26.607Z,97958.83
2019-01-13T17:58:58.710Z,97960.50
2019-01-13T18:01:42.289Z,97956.20
2019-01-13T18:04:12.839Z,97953.58
2019-01-13T18:06:43.731Z,97930.53
2019-01-13T18:09:14.142Z,97926.59
2019-01-13T18:11:45.157Z,97909.44
2019-01-13T18:14:15.551Z,97917.68
2019-01-13T18:17:10.130Z,97927.57
2019-01-13T18:19:40.758Z,97922.94
2019-01-13T18:22:11.471Z,97935.82
2019-01-13T18:24:42.097Z,97934.48
2019-01-13T18:27:13.211Z,97930.20
2019-01-13T18:29:44.244Z,97925.91
2019-01-13T18:32:14.764Z,97921.27
2019-01-13T18:34:50.295Z,97932.78
2019-01-13T18:37:18.226Z,97928.83
2019-01-13T18:39:48.762Z,97922.20
2019-01-13T18:42:19.211Z,97926.81
2019-01-13T18:44:49.789Z,97900.11
2019-01-13T18:47:20.432Z,97923.48
2019-01-13T18:49:51.009Z,97920.01
2019-01-13T18:52:21.548Z,97913.11
2019-01-13T18:54:52.483Z,97911.63
2019-01-13T18:57:23.171Z,97909.50
2019-01-13T18:59:53.959Z,97909.02
2019-01-13T19:02:26.988Z,97896.85
2019-01-13T19:04:57.698Z,97927.68
2019-01-13T19:07:28.474Z,97925.94
2019-01-13T19:09:59.185Z,97936.45
2019-01-13T19:12:30.036Z,97924.25
2019-01-13T19:15:02.817Z,97942.62
2019-01-13T19:17:33.363Z,97978.70
2019-01-13T19:20:19.672Z,98024.16
2019-01-13T19:22:52.838Z,98002.66
2019-01-13T19:25:41.307Z,98012.81
2019-01-13T19:28:11.613Z,98014.49
2019-01-13T19:30:42.169Z,98008.34
2019-01-13T19:33:25.121Z,98017.94
2019-01-13T19:35:56.357Z,98010.63
2019-01-13T19:38:26.941Z,98007.10
2019-01-13T19:40:57.626Z,98024.20
2019-01-13T19:43:28.320Z,98027.40
2019-01-13T19:45:59.602Z,98014.28
2019-01-13T19:48:30.135Z,98003.49
2019-01-13T19:51:02.372Z,97969.98
2019-01-13T19:53:33.955Z,98022.43
2019-01-13T19:56:05.534Z,98010.48
2019-01-13T19:58:35.931Z,98031.41
2019-01-13T20:01:07.890Z,98031.20
2019-01-13T20:03:38.217Z,98043.59
2019-01-13T20:06:09.070Z,98034.38
2019-01-13T20:08:39.426Z,98032.23
2019-01-13T20:11:09.892Z,98031.52
2019-01-13T20:13:40.157Z,98027.97
2019-01-13T20:16:11.319Z,98027.97
2019-01-13T20:18:41.787Z,98029.80
2019-01-13T20:21:12.189Z,98029.82
2019-01-13T20:23:42.767Z,98031.77
2019-01-13T20:26:13.217Z,98031.18
2019-01-13T20:28:43.573Z,98037.48
2019-01-13T20:31:14.607Z,98028.92
2019-01-13T20:33:49.126Z,98034.48
2019-01-13T20:36:19.681Z,98039.89
2019-01-13T20:38:49.979Z,98038.59
2019-01-13T20:41:20.422Z,98038.16
2019-01-13T20:43:53.381Z,98038.74
2019-01-13T20:46:24.049Z,98024.35
2019-01-13T20:48:56.373Z,98042.47
2019-01-13T20:51:26.684Z,98051.19
2019-01-13T20:53:57.154Z,98054.42
2019-01-13T20:56:30.878Z,98053.43
2019-01-13T20:59:11.138Z,98048.70
2019-01-13T21:01:47.969Z,98053.48
2019-01-13T21:04:22.975Z,98031.88
2019-01-13T21:06:54.393Z,98061.77
2019-01-13T21:09:24.788Z,98050.58
2019-01-13T21:11:55.199Z,98047.59
2019-01-13T21:14:25.661Z,98045.33
2019-01-13T21:16:56.445Z,98050.22
2019-01-13T21:19:26.843Z,98059.57
2019-01-13T21:21:57.321Z,98062.95
2019-01-13T21:24:28.090Z,98072.80
2019-01-13T21:26:58.462Z,98084.62
2019-01-13T21:29:28.838Z,98090.02
2019-01-13T21:32:01.422Z,98095.64
2019-01-13T21:34:31.826Z,98089.22
2019-01-13T21:37:02.448Z,98089.80
2019-01-13T21:39:33.797Z,98097.14
2019-01-13T21:42:10.008Z,98087.48
2019-01-13T21:44:40.506Z,98093.41
2019-01-13T21:47:15.239Z,98081.13
2019-01-13T21:49:46.967Z,98080.36
2019-01-13T21:52:17.418Z,98074.63
2019-01-13T21:54:54.096Z,98074.16
2019-01-13T21:57:24.765Z,98080.10
2019-01-13T21:59:58.477Z,98072.28
2019-01-13T22:02:28.862Z,98070.92
2019-01-13T22:04:59.616Z,98069.50
2019-01-13T22:07:48.802Z,98060.80
2019-01-13T22:10:20.567Z,98061.53
2019-01-13T22:12:50.958Z,98067.09
2019-01-13T22:15:22.465Z,98069.88
2019-01-13T22:17:53.124Z,98075.70
2019-01-13T22:20:24.496Z,98067.15
2019-01-13T22:22:55.002Z,98070.44
2019-01-13T22:25:25.371Z,98069.45
2019-01-13T22:27:55.804Z,98082.25
2019-01-13T22:30:26.110Z,98076.95
2019-01-13T22:32:56.870Z,98081.59
2019-01-13T22:35:27.268Z,98067.67
2019-01-13T22:37:58.068Z,98077.00
2019-01-13T22:40:28.521Z,98088.03
2019-01-13T22:42:58.908Z,98086.83
2019-01-13T22:45:29.320Z,98069.66
2019-01-13T22:48:01.339Z,98075.42
2019-01-13T22:50:31.754Z,98070.23
2019-01-13T22:53:02.598Z,98069.71
2019-01-13T22:55:32.913Z,98065.13
2019-01-13T22:58:04.660Z,98088.92
2019-01-13T23:01:33.464Z,98090.83
2019-01-13T23:04:09.626Z,98084.35
2019-01-13T23:06:43.068Z,98085.62
2019-01-13T23:09:14.650Z,98100.74
2019-01-13T23:11:45.525Z,98101.48
2019-01-13T23:14:16.667Z,98099.12
2019-01-13T23:16:58.255Z,98110.94
2019-01-13T23:19:44.423Z,98106.36
2019-01-13T23:22:15.290Z,98108.78
2019-01-13T23:24:48.694Z,98104.83
2019-01-13T23:27:23.403Z,98106.62
2019-01-13T23:29:54.020Z,98086.58
2019-01-13T23:32:24.404Z,98101.55
2019-01-13T23:34:54.736Z,98113.77
2019-01-13T23:37:25.180Z,98116.76
2019-01-13T23:39:55.475Z,98115.39
2019-01-13T23:42:26.344Z,98128.72
2019-01-13T23:44:56.692Z,98122.90
2019-01-13T23:47:27.056Z,98124.91
2019-01-13T23:49:57.354Z,98121.27
2019-01-13T23:52:27.826Z,98130.47
2019-01-13T23:55:00.760Z,98129.20
2019-01-13T23:57:31.107Z,98133.67
